Time;durP1;ratioP1;P1;durP2;ratioP2;P2;SDS_P1;SDS_P2;PMS_P1;PMS_P2;Temp;Humidity;BMP_temperature;BMP_pressure;BME280_temperature;BME280_humidity;BME280_pressure;Samples;Min_cycle;Max_cycle;Signal;HPM_P1;HPM_P2
2023/03/08 00:00:13;;;;;;;2.35;1.85;;;;;;;-1.23;100.00;100088.22;5072409;28;20121;-75
2023/03/08 00:02:39;;;;;;;2.45;1.40;;;;;;;-1.24;100.00;100102.41;5072244;28;20037;-74
2023/03/08 00:05:07;;;;;;;3.40;1.30;;;;;;;-1.25;100.00;100105.41;5072211;28;20060;-75
2023/03/08 00:07:33;;;;;;;2.28;1.40;;;;;;;-1.27;100.00;100097.19;5071902;28;20059;-75
2023/03/08 00:10:00;;;;;;;1.42;1.30;;;;;;;-1.30;100.00;100088.22;5070696;28;20465;-75
2023/03/08 00:12:27;;;;;;;2.97;1.33;;;;;;;-1.31;100.00;100081.50;5071146;28;20528;-75
2023/03/08 00:14:54;;;;;;;1.35;1.25;;;;;;;-1.32;100.00;100082.63;5072157;28;20085;-75
2023/03/08 00:17:21;;;;;;;1.42;1.30;;;;;;;-1.32;100.00;100089.72;5071644;28;20045;-75
2023/03/08 00:19:50;;;;;;;1.60;1.50;;;;;;;-1.35;100.00;100093.81;5070246;28;20049;-75
2023/03/08 00:22:17;;;;;;;1.58;1.48;;;;;;;-1.37;100.00;100093.44;5071534;28;20052;-74
2023/03/08 00:24:43;;;;;;;2.97;1.73;;;;;;;-1.39;100.00;100090.47;5069550;28;20056;-74
2023/03/08 00:27:10;;;;;;;1.85;1.45;;;;;;;-1.40;100.00;100094.94;5071806;28;20205;-75
2023/03/08 00:29:38;;;;;;;2.05;1.52;;;;;;;-1.40;100.00;100094.19;5071281;28;20048;-75
2023/03/08 00:32:05;;;;;;;2.95;1.63;;;;;;;-1.42;100.00;100091.97;5071702;28;20099;-74
2023/03/08 00:34:31;;;;;;;4.05;1.70;;;;;;;-1.42;100.00;100093.81;5070662;28;20057;-75
2023/03/08 00:36:58;;;;;;;1.83;1.60;;;;;;;-1.43;100.00;100081.88;5070266;28;20103;-75
2023/03/08 00:39:24;;;;;;;2.22;1.42;;;;;;;-1.43;100.00;100092.34;5070957;28;20056;-75
2023/03/08 00:41:51;;;;;;;1.80;1.70;;;;;;;-1.43;100.00;100081.88;5071874;28;20068;-75
2023/03/08 00:44:17;;;;;;;3.92;1.33;;;;;;;-1.45;100.00;100081.50;5071390;28;20129;-75
2023/03/08 00:46:44;;;;;;;2.53;1.80;;;;;;;-1.46;100.00;100082.63;5071214;28;20052;-74
2023/03/08 00:49:12;;;;;;;1.90;1.73;;;;;;;-1.45;100.00;100082.25;5069856;28;20128;-74
2023/03/08 00:51:39;;;;;;;2.08;1.73;;;;;;;-1.47;100.00;100084.50;5069481;28;20147;-75
2023/03/08 00:54:05;;;;;;;2.10;1.88;;;;;;;-1.48;100.00;100074.44;5071356;28;20506;-74
2023/03/08 00:56:32;;;;;;;2.13;2.03;;;;;;;-1.50;100.00;100079.28;5070625;28;20084;-74
2023/03/08 00:58:58;;;;;;;2.10;2.00;;;;;;;-1.52;100.00;100073.69;5069898;28;20095;-74
2023/03/08 01:01:25;;;;;;;3.17;2.22;;;;;;;-1.52;100.00;100071.81;5070819;28;20122;-75
2023/03/08 01:03:52;;;;;;;2.00;1.80;;;;;;;-1.51;100.00;100072.56;5071482;28;20065;-74
2023/03/08 01:06:21;;;;;;;3.80;2.35;;;;;;;-1.54;100.00;100068.09;5070830;28;20532;-74
2023/03/08 01:08:47;;;;;;;2.85;2.20;;;;;;;-1.60;100.00;100065.09;5072516;28;20613;-74
2023/03/08 01:11:20;;;;;;;2.03;1.92;;;;;;;-1.59;100.00;100063.22;5074490;28;20104;-74
2023/03/08 01:13:48;;;;;;;3.72;2.40;;;;;;;-1.55;100.00;100058.75;5074779;28;20079;-74
2023/03/08 01:16:26;;;;;;;3.78;2.40;;;;;;;-1.55;100.00;100058.75;5074573;28;20037;-75
2023/03/08 01:18:53;;;;;;;3.10;2.30;;;;;;;-1.58;100.00;100049.81;5074861;28;20053;-74
2023/03/08 01:21:21;;;;;;;6.15;2.72;;;;;;;-1.56;100.00;100039.75;5072871;28;20049;-74
2023/03/08 01:23:48;;;;;;;3.00;2.65;;;;;;;-1.56;100.00;100029.28;5072807;28;20509;-75
2023/03/08 01:26:17;;;;;;;2.60;2.40;;;;;;;-1.54;100.00;100037.50;5072926;28;20107;-74
2023/03/08 01:28:45;;;;;;;3.65;2.78;;;;;;;-1.55;100.00;100040.47;5072874;28;20052;-74
2023/03/08 01:31:15;;;;;;;2.90;2.70;;;;;;;-1.57;100.00;100035.63;5072603;28;20505;-74
2023/03/08 01:33:43;;;;;;;3.75;2.85;;;;;;;-1.59;100.00;100034.50;5072146;28;20509;-74
2023/03/08 01:36:13;;;;;;;2.47;2.38;;;;;;;-1.61;100.00;100037.53;5074180;28;20041;-75
2023/03/08 01:38:43;;;;;;;3.00;2.47;;;;;;;-1.62;100.00;100028.19;5072324;28;20053;-74
2023/03/08 01:41:17;;;;;;;2.35;2.15;;;;;;;-1.61;100.00;100024.47;5072746;28;20116;-74
2023/03/08 01:43:44;;;;;;;3.17;2.80;;;;;;;-1.61;100.00;100024.47;5073941;28;20521;-74
2023/03/08 01:46:26;;;;;;;3.25;2.60;;;;;;;-1.62;100.00;100025.59;5073978;28;20549;-74
2023/03/08 01:49:17;;;;;;;4.93;2.55;;;;;;;-1.64;100.00;100011.44;5072494;28;20060;-74
2023/03/08 01:52:00;;;;;;;3.08;2.35;;;;;;;-1.65;100.00;100012.53;5072178;28;20099;-74
2023/03/08 01:54:37;;;;;;;3.25;2.95;;;;;;;-1.69;100.00;100012.53;5073964;28;20470;-75
2023/03/08 01:57:10;;;;;;;2.53;2.33;;;;;;;-1.73;100.00;100009.94;5072825;28;20047;-74
2023/03/08 01:59:38;;;;;;;4.78;2.95;;;;;;;-1.76;100.00;100002.84;5073931;28;20052;-74
2023/03/08 02:02:05;;;;;;;4.22;3.20;;;;;;;-1.77;100.00;100003.97;5072473;28;20049;-74
2023/03/08 02:04:33;;;;;;;4.05;2.78;;;;;;;-1.78;100.00;99984.22;5071877;28;20077;-74
2023/03/08 02:07:00;;;;;;;4.85;3.70;;;;;;;-1.75;100.00;99987.94;5072146;28;20041;-74
2023/03/08 02:09:27;;;;;;;6.10;3.38;;;;;;;-1.74;100.00;99976.38;5072231;28;20049;-74
2023/03/08 02:11:59;;;;;;;2.90;2.70;;;;;;;-1.73;100.00;99981.22;5072407;28;20045;-74
2023/03/08 02:14:26;;;;;;;3.72;3.42;;;;;;;-1.77;100.00;99974.50;5073282;28;20525;-74
2023/03/08 02:16:53;;;;;;;4.72;3.00;;;;;;;-1.79;100.00;99981.97;5072240;28;20045;-74
2023/03/08 02:19:28;;;;;;;6.95;3.75;;;;;;;-1.81;100.00;99971.16;5073461;28;20048;-74
2023/03/08 02:21:54;;;;;;;5.32;4.20;;;;;;;-1.82;100.00;99970.41;5071923;28;20045;-74
2023/03/08 02:24:23;;;;;;;4.25;3.92;;;;;;;-1.83;100.00;99965.56;5073403;28;20081;-75
2023/03/08 02:27:01;;;;;;;5.68;4.30;;;;;;;-1.83;100.00;99965.56;5073549;28;20098;-74
2023/03/08 02:29:28;;;;;;;7.20;4.35;;;;;;;-1.84;100.00;99962.22;5071616;28;20049;-75
2023/03/08 02:31:54;;;;;;;5.32;4.40;;;;;;;-1.85;100.00;99962.59;5072181;28;20055;-73
2023/03/08 02:34:21;;;;;;;5.82;5.28;;;;;;;-1.88;100.00;99961.47;5072481;28;20064;-74
2023/03/08 02:36:47;;;;;;;8.20;5.18;;;;;;;-1.88;100.00;99958.13;5071512;28;20111;-74
2023/03/08 02:39:14;;;;;;;6.63;4.85;;;;;;;-1.90;100.00;99963.69;5071932;28;20053;-73
2023/03/08 02:41:41;;;;;;;6.50;4.72;;;;;;;-1.90;100.00;99955.13;5073156;28;20075;-75
2023/03/08 02:44:07;;;;;;;13.20;5.32;;;;;;;-1.91;100.00;99954.38;5073402;28;20045;-75
2023/03/08 02:46:34;;;;;;;7.38;5.15;;;;;;;-1.92;100.00;99945.06;5072988;28;20112;-76
2023/03/08 02:49:01;;;;;;;8.18;6.10;;;;;;;-1.93;100.00;99942.81;5071801;28;20049;-75
2023/03/08 02:51:27;;;;;;;5.90;5.18;;;;;;;-1.94;100.00;99949.91;5072057;28;20045;-75
2023/03/08 02:53:56;;;;;;;6.03;4.90;;;;;;;-1.95;100.00;99943.19;5071818;28;20060;-75
2023/03/08 02:56:23;;;;;;;4.97;4.57;;;;;;;-1.99;100.00;99931.28;5071170;28;20425;-75
2023/03/08 02:58:50;;;;;;;8.63;5.05;;;;;;;-1.98;100.00;99941.34;5071968;28;20049;-76
2023/03/08 03:01:16;;;;;;;7.68;5.03;;;;;;;-1.98;100.00;99930.91;5071319;28;20045;-76
2023/03/08 03:03:43;;;;;;;5.47;4.95;;;;;;;-1.99;100.00;99931.28;5072868;28;20136;-76
2023/03/08 03:06:15;;;;;;;7.80;5.28;;;;;;;-1.98;100.00;99927.53;5072537;28;20076;-76
2023/03/08 03:08:44;;;;;;;6.68;5.38;;;;;;;-1.96;100.00;99931.28;5071447;28;20076;-76
2023/03/08 03:11:20;;;;;;;6.55;5.32;;;;;;;-1.95;100.00;99935.38;5072827;28;20446;-74
2023/03/08 03:13:54;;;;;;;6.22;5.55;;;;;;;-1.97;100.00;99942.09;5071725;28;20049;-75
2023/03/08 03:16:23;;;;;;;7.30;5.55;;;;;;;-2.00;100.00;99945.47;5071313;28;20056;-75
2023/03/08 03:18:52;;;;;;;7.88;5.47;;;;;;;-2.01;100.00;99939.50;5071198;28;20098;-76
2023/03/08 03:21:19;;;;;;;7.53;5.40;;;;;;;-2.04;100.00;99933.16;5072782;28;20493;-75
2023/03/08 03:23:46;;;;;;;6.93;5.63;;;;;;;-2.07;100.00;99933.91;5073414;28;20045;-75
2023/03/08 03:26:20;;;;;;;7.63;5.68;;;;;;;-2.08;100.00;99929.06;5071315;28;20507;-75
2023/03/08 03:28:53;;;;;;;6.10;5.53;;;;;;;-2.11;100.00;99932.41;5071659;28;20136;-75
2023/03/08 03:31:22;;;;;;;6.43;5.78;;;;;;;-2.08;100.00;99931.66;5071741;28;20057;-74
2023/03/08 03:33:49;;;;;;;7.43;6.03;;;;;;;-2.09;100.00;99922.34;5071903;28;20053;-75
2023/03/08 03:36:18;;;;;;;10.80;6.55;;;;;;;-2.09;100.00;99924.97;5070975;28;20158;-75
2023/03/08 03:38:46;;;;;;;8.23;6.55;;;;;;;-2.09;100.00;99914.53;5072822;28;20041;-75
2023/03/08 03:41:16;;;;;;;8.35;6.43;;;;;;;-2.09;100.00;99915.28;5072209;28;20083;-75
2023/03/08 03:43:44;;;;;;;9.18;7.45;;;;;;;-2.10;100.00;99905.97;5070793;28;20049;-75
2023/03/08 03:46:13;;;;;;;10.52;7.63;;;;;;;-2.08;100.00;99906.34;5070832;28;20131;-74
2023/03/08 03:48:41;;;;;;;12.45;7.18;;;;;;;-2.05;100.00;99900.38;5070146;28;20045;-75
2023/03/08 03:51:11;;;;;;;12.88;7.65;;;;;;;-2.02;100.00;99897.03;5070297;28;20045;-75
2023/03/08 03:53:42;;;;;;;13.25;8.73;;;;;;;-1.97;100.00;99890.66;5070703;28;20147;-75
2023/03/08 03:56:16;;;;;;;14.38;9.18;;;;;;;-1.94;100.00;99876.88;5072006;28;20045;-75
2023/03/08 03:58:44;;;;;;;12.32;8.95;;;;;;;-1.92;100.00;99872.03;5070430;28;20083;-74
2023/03/08 04:01:19;;;;;;;18.20;10.25;;;;;;;-1.88;100.00;99879.84;5070270;28;20049;-75
2023/03/08 04:03:47;;;;;;;15.55;9.68;;;;;;;-1.87;100.00;99884.69;5053837;28;20084;-75
2023/03/08 04:06:19;;;;;;;28.75;11.45;;;;;;;-1.84;100.00;99883.94;5071790;28;20132;-73
2023/03/08 04:08:50;;;;;;;19.15;11.48;;;;;;;-1.80;100.00;99886.53;5070414;28;20104;-74
2023/03/08 04:11:20;;;;;;;22.63;11.82;;;;;;;-1.78;100.00;99890.28;5070298;28;20057;-75
2023/03/08 04:13:48;;;;;;;25.30;14.05;;;;;;;-1.73;100.00;99892.50;5070534;28;20051;-75
2023/03/08 04:16:20;;;;;;;19.38;12.93;;;;;;;-1.70;100.00;99886.53;5070396;28;20041;-74
2023/03/08 04:18:51;;;;;;;22.85;13.25;;;;;;;-1.65;100.00;99887.28;5070110;28;20153;-74
2023/03/08 04:21:17;;;;;;;26.63;11.95;;;;;;;-1.64;100.00;99899.94;5070040;28;20214;-74
2023/03/08 04:23:44;;;;;;;24.33;12.50;;;;;;;-1.69;100.00;99901.06;5070452;28;20045;-74
2023/03/08 04:26:12;;;;;;;21.67;10.65;;;;;;;-1.69;100.00;99877.59;5069944;28;20490;-73
2023/03/08 04:28:40;;;;;;;26.27;12.50;;;;;;;-1.65;100.00;99876.84;5070119;28;20053;-74
2023/03/08 04:31:15;;;;;;;19.98;11.23;;;;;;;-1.63;100.00;99866.75;5070370;28;20123;-74
2023/03/08 04:33:43;;;;;;;19.92;10.57;;;;;;;-1.61;100.00;99877.56;5069606;28;20061;-74
2023/03/08 04:36:10;;;;;;;21.85;11.77;;;;;;;-1.60;100.00;99877.16;5069830;28;20058;-74
2023/03/08 04:38:37;;;;;;;26.05;12.07;;;;;;;-1.58;100.00;99861.13;5071416;28;20144;-74
2023/03/08 04:41:10;;;;;;;38.92;13.68;;;;;;;-1.59;100.00;99852.56;5070289;28;20083;-73
2023/03/08 04:43:50;;;;;;;30.00;13.25;;;;;;;-1.56;100.00;99858.88;5073438;28;20087;-73
2023/03/08 04:46:22;;;;;;;33.45;13.05;;;;;;;-1.53;100.00;99855.53;5073144;28;20107;-73
2023/03/08 04:48:51;;;;;;;50.22;15.38;;;;;;;-1.51;100.00;99855.88;5074921;28;20049;-73
2023/03/08 04:51:19;;;;;;;48.47;14.30;;;;;;;-1.50;100.00;99847.69;5073398;28;20110;-74
2023/03/08 04:53:46;;;;;;;47.05;14.63;;;;;;;-1.49;100.00;99836.13;5073807;28;20447;-73
2023/03/08 04:56:14;;;;;;;51.38;14.88;;;;;;;-1.48;100.00;99827.16;5073375;28;20045;-73
2023/03/08 04:58:42;;;;;;;45.83;14.88;;;;;;;-1.44;100.00;99832.38;5073247;28;20053;-74
2023/03/08 05:01:25;;;;;;;73.05;15.25;;;;;;;-1.43;100.00;99820.81;5072878;28;20056;-74
2023/03/08 05:03:53;;;;;;;40.53;15.07;;;;;;;-1.39;100.00;99821.53;5073616;28;20053;-75
2023/03/08 05:06:26;;;;;;;33.13;14.48;;;;;;;-1.39;100.00;99809.22;5073090;28;20375;-75
2023/03/08 05:08:55;;;;;;;37.13;15.20;;;;;;;-1.36;100.00;99805.13;5073518;28;20064;-75
2023/03/08 05:11:27;;;;;;;53.25;15.73;;;;;;;-1.36;100.00;99805.84;5072558;28;20128;-75
2023/03/08 05:13:56;;;;;;;55.58;15.95;;;;;;;-1.36;100.00;99805.13;5073082;28;20136;-76
2023/03/08 05:16:25;;;;;;;32.10;15.30;;;;;;;-1.33;100.00;99814.78;5072465;28;20048;-75
2023/03/08 05:18:52;;;;;;;33.22;16.23;;;;;;;-1.29;100.00;99812.16;5073343;28;20049;-75
2023/03/08 05:21:23;;;;;;;51.65;16.00;;;;;;;-1.30;100.00;99797.63;5072839;28;20128;-75
2023/03/08 05:23:59;;;;;;;32.15;15.20;;;;;;;-1.33;100.00;99793.91;5073224;28;20148;-75
2023/03/08 05:26:27;;;;;;;30.60;14.55;;;;;;;-1.37;100.00;99782.75;5072208;28;20099;-75
2023/03/08 05:28:55;;;;;;;50.22;16.60;;;;;;;-1.36;100.00;99765.94;5073013;28;20127;-75
2023/03/08 05:31:25;;;;;;;49.28;16.25;;;;;;;-1.38;100.00;99761.09;5071763;28;20103;-74
2023/03/08 05:33:53;;;;;;;42.40;15.80;;;;;;;-1.35;100.00;99757.00;5072515;28;20057;-74
2023/03/08 05:36:28;;;;;;;51.25;15.48;;;;;;;-1.35;100.00;99759.59;5071897;28;20080;-75
2023/03/08 05:38:56;;;;;;;106.97;15.10;;;;;;;-1.38;100.00;99757.75;5073121;28;20045;-76
2023/03/08 05:41:30;;;;;;;38.40;14.95;;;;;;;-1.42;100.00;99751.81;5072517;28;20484;-75
2023/03/08 05:44:00;;;;;;;128.27;18.02;;;;;;;-1.44;100.00;99746.22;5072398;28;20493;-75
2023/03/08 05:46:29;;;;;;;83.43;16.30;;;;;;;-1.46;100.00;99735.41;5072452;28;20055;-75
2023/03/08 05:48:59;;;;;;;72.35;14.98;;;;;;;-1.48;100.00;99732.44;5072227;28;20064;-75
2023/03/08 05:51:27;;;;;;;51.10;16.35;;;;;;;-1.45;100.00;99721.25;5073446;28;20052;-75
2023/03/08 05:53:54;;;;;;;70.35;16.08;;;;;;;-1.43;100.00;99719.72;5073870;28;20049;-75
2023/03/08 05:56:22;;;;;;;78.68;16.73;;;;;;;-1.45;100.00;99703.72;5073829;28;20045;-74
2023/03/08 05:58:57;;;;;;;69.63;16.15;;;;;;;-1.46;100.00;99707.44;5073869;28;20495;-73
2023/03/08 06:01:27;;;;;;;43.10;15.60;;;;;;;-1.50;100.00;99706.72;5071779;28;20466;-73
2023/03/08 06:04:00;;;;;;;55.85;16.05;;;;;;;-1.47;100.00;99705.22;5056875;28;20154;-73
2023/03/08 06:06:30;;;;;;;60.50;17.15;;;;;;;-1.47;100.00;99705.22;5071752;28;20136;-73
2023/03/08 06:09:03;;;;;;;44.88;16.17;;;;;;;-1.45;100.00;99705.56;5072527;28;20048;-73
2023/03/08 06:11:31;;;;;;;39.95;17.30;;;;;;;-1.43;100.00;99701.47;5073361;28;20098;-73
2023/03/08 06:13:58;;;;;;;72.47;16.02;;;;;;;-1.41;100.00;99694.00;5071498;28;20060;-75
2023/03/08 06:16:28;;;;;;;64.80;18.05;;;;;;;-1.40;100.00;99702.56;5071686;28;20049;-76
2023/03/08 06:18:55;;;;;;;58.88;17.05;;;;;;;-1.41;100.00;99698.47;5073889;28;20052;-75
2023/03/08 06:21:22;;;;;;;86.40;17.73;;;;;;;-1.39;100.00;99694.34;5072921;28;20040;-75
2023/03/08 06:23:56;;;;;;;52.78;18.60;;;;;;;-1.36;100.00;99692.84;5072305;28;20052;-75
2023/03/08 06:26:23;;;;;;;32.08;17.13;;;;;;;-1.36;100.00;99692.84;5054678;28;20080;-75
2023/03/08 06:28:49;;;;;;;46.35;17.38;;;;;;;-1.36;100.00;99687.63;5073115;28;20057;-75
2023/03/08 06:31:17;;;;;;;67.63;17.55;;;;;;;-1.33;100.00;99688.72;5054458;28;20041;-75
2023/03/08 06:33:45;;;;;;;50.75;18.63;;;;;;;-1.32;100.00;99690.22;5054546;28;20114;-75
2023/03/08 06:36:19;;;;;;;56.13;17.40;;;;;;;-1.30;100.00;99690.56;5055717;28;20049;-75
2023/03/08 06:38:48;;;;;;;58.60;18.83;;;;;;;-1.29;100.00;99690.19;5072037;28;20045;-75
2023/03/08 06:41:16;;;;;;;36.95;18.08;;;;;;;-1.27;100.00;99687.94;5073325;28;20504;-75
2023/03/08 06:43:46;;;;;;;59.55;19.25;;;;;;;-1.24;100.00;99692.38;5055233;28;20481;-75
2023/03/08 06:46:16;;;;;;;60.28;18.05;;;;;;;-1.24;100.00;99687.16;5071515;28;20045;-75
2023/03/08 06:48:43;;;;;;;50.58;16.40;;;;;;;-1.22;100.00;99687.53;5071184;28;20052;-75
2023/03/08 06:51:10;;;;;;;37.75;17.58;;;;;;;-1.20;100.00;99684.53;5071426;28;20045;-75
2023/03/08 06:53:41;;;;;;;48.75;19.08;;;;;;;-1.17;100.00;99688.97;5071595;28;20110;-76
2023/03/08 06:56:10;;;;;;;42.90;17.67;;;;;;;-1.16;100.00;99687.84;5071660;28;20053;-72
2023/03/08 06:58:37;;;;;;;52.58;20.33;;;;;;;-1.15;100.00;99684.84;5071699;28;20049;-74
2023/03/08 07:01:04;;;;;;;31.30;17.55;;;;;;;-1.11;100.00;99687.44;5073836;28;20047;-73
2023/03/08 07:03:32;;;;;;;41.35;19.15;;;;;;;-1.08;100.00;99690.00;5073594;28;20075;-73
2023/03/08 07:06:00;;;;;;;47.42;18.50;;;;;;;-1.08;100.00;99687.41;5072388;28;20045;-73
2023/03/08 07:08:26;;;;;;;37.83;17.55;;;;;;;-1.09;100.00;99691.13;5073399;28;20087;-73
2023/03/08 07:10:53;;;;;;;31.55;17.10;;;;;;;-1.07;100.00;99690.75;5073411;28;20043;-74
2023/03/08 07:13:22;;;;;;;39.92;18.58;;;;;;;-1.03;100.00;99688.84;5073723;28;20096;-74
2023/03/08 07:15:52;;;;;;;40.50;19.00;;;;;;;-0.98;100.00;99679.88;5072223;28;20045;-74
2023/03/08 07:18:19;;;;;;;43.15;18.05;;;;;;;-0.95;100.00;99676.50;5073179;28;20045;-76
2023/03/08 07:20:59;;;;;;;36.65;19.10;;;;;;;-0.93;100.00;99679.47;5073609;28;20099;-74
2023/03/08 07:23:26;;;;;;;37.78;18.70;;;;;;;-0.91;100.00;99683.16;5073225;28;20049;-75
2023/03/08 07:25:52;;;;;;;36.13;17.90;;;;;;;-0.86;100.00;99676.78;5073013;28;20041;-73
2023/03/08 07:28:20;;;;;;;43.67;19.45;;;;;;;-0.81;100.00;99684.22;5073085;28;20120;-74
2023/03/08 07:30:49;;;;;;;33.15;17.77;;;;;;;-0.79;100.00;99674.09;5073184;28;20036;-75
2023/03/08 07:33:16;;;;;;;38.20;19.58;;;;;;;-0.78;100.00;99673.69;5071275;28;20486;-75
2023/03/08 07:35:45;;;;;;;32.75;17.45;;;;;;;-0.78;100.00;99672.97;5073534;28;20041;-74
2023/03/08 07:38:14;;;;;;;43.83;17.85;;;;;;;-0.78;100.00;99668.47;5073044;28;20052;-77
2023/03/08 07:40:41;;;;;;;30.63;16.30;;;;;;;-0.78;100.00;99663.25;5072795;28;20052;-76
2023/03/08 07:43:08;;;;;;;38.72;18.08;;;;;;;-0.72;100.00;99668.81;5073366;28;20502;-75
2023/03/08 07:45:51;;;;;;;37.85;17.48;;;;;;;-0.67;100.00;99660.53;5073424;28;20037;-75
2023/03/08 07:48:18;;;;;;;31.75;16.63;;;;;;;-0.68;100.00;99657.19;5072713;28;20045;-75
2023/03/08 07:50:44;;;;;;;37.85;17.92;;;;;;;-0.62;100.00;99656.75;5072755;28;20079;-74
2023/03/08 07:53:10;;;;;;;40.47;19.20;;;;;;;-0.63;100.00;99653.41;5072664;28;20099;-74
2023/03/08 07:55:37;;;;;;;35.28;18.00;;;;;;;-0.63;100.00;99648.19;5072625;28;20044;-73
2023/03/08 07:58:04;;;;;;;33.28;17.13;;;;;;;-0.58;100.00;99642.53;5072708;28;20041;-76
2023/03/08 08:00:30;;;;;;;37.13;18.85;;;;;;;-0.56;100.00;99637.66;5072520;28;20055;-73
2023/03/08 08:02:57;;;;;;;34.33;16.98;;;;;;;-0.54;100.00;99643.22;5072715;28;20049;-73
2023/03/08 08:05:24;;;;;;;38.80;18.30;;;;;;;-0.49;100.00;99634.22;5072470;28;20076;-73
2023/03/08 08:07:50;;;;;;;38.80;19.63;;;;;;;-0.48;100.00;99628.59;5072830;28;20041;-75
2023/03/08 08:10:17;;;;;;;38.63;19.20;;;;;;;-0.47;100.00;99630.09;5071940;28;20627;-75
2023/03/08 08:12:43;;;;;;;42.25;18.98;;;;;;;-0.48;100.00;99623.38;5070929;28;20033;-73
2023/03/08 08:15:10;;;;;;;41.72;19.23;;;;;;;-0.48;100.00;99623.38;5071246;28;20088;-74
2023/03/08 08:17:36;;;;;;;45.13;21.27;;;;;;;-0.46;100.00;99631.56;5072506;28;20073;-74
2023/03/08 08:20:06;;;;;;;43.65;20.00;;;;;;;-0.41;100.00;99625.91;5072512;28;20048;-74
2023/03/08 08:22:35;;;;;;;43.35;20.52;;;;;;;-0.34;100.00;99627.69;5072169;28;20049;-75
2023/03/08 08:25:06;;;;;;;46.08;20.48;;;;;;;-0.28;100.00;99623.50;5071932;28;20098;-76
2023/03/08 08:27:33;;;;;;;49.38;22.38;;;;;;;-0.22;100.00;99615.97;5072401;28;20045;-75
2023/03/08 08:30:00;;;;;;;46.63;21.10;;;;;;;-0.18;100.00;99621.91;5072444;28;20041;-74
2023/03/08 08:32:27;;;;;;;46.90;21.42;;;;;;;-0.12;100.00;99615.09;5070878;28;20041;-74
2023/03/08 08:34:53;;;;;;;46.25;20.38;;;;;;;-0.09;100.00;99607.19;5053756;28;20144;-75
2023/03/08 08:37:20;;;;;;;43.80;21.00;;;;;;;-0.03;100.00;99617.97;5053945;28;20084;-74
2023/03/08 08:39:46;;;;;;;49.35;22.02;;;;;;;-0.01;100.00;99613.09;5071708;28;20076;-76
2023/03/08 08:42:13;;;;;;;44.50;21.55;;;;;;;0.01;100.00;99621.25;5071957;28;20045;-77
2023/03/08 08:44:39;;;;;;;53.65;22.90;;;;;;;0.08;100.00;99612.56;5072361;28;20045;-75
2023/03/08 08:47:06;;;;;;;49.35;22.05;;;;;;;0.07;100.00;99613.72;5072376;28;20049;-76
2023/03/08 08:49:33;;;;;;;51.78;21.25;;;;;;;0.05;100.00;99610.75;5071746;28;20052;-75
2023/03/08 08:51:59;;;;;;;43.45;20.75;;;;;;;0.08;100.00;99602.84;5071985;28;20136;-75
2023/03/08 08:54:26;;;;;;;40.70;20.02;;;;;;;0.12;100.00;99605.41;5071439;28;20045;-76
2023/03/08 08:56:52;;;;;;;47.47;21.63;;;;;;;0.13;100.00;99606.91;5071881;28;20514;-76
2023/03/08 08:59:19;;;;;;;53.00;21.85;;;;;;;0.13;100.00;99612.88;5071713;28;20045;-76
2023/03/08 09:01:46;;;;;;;54.53;21.98;;;;;;;0.13;100.00;99601.66;5072030;28;20481;-76
2023/03/08 09:04:13;;;;;;;45.28;20.48;;;;;;;0.16;100.00;99598.25;5071669;28;20072;-77
2023/03/08 09:06:40;;;;;;;42.08;19.83;;;;;;;0.13;100.00;99594.56;5071906;28;20556;-76
2023/03/08 09:09:06;;;;;;;45.83;20.88;;;;;;;0.15;100.00;99588.94;5071685;28;20584;-77
2023/03/08 09:11:33;;;;;;;44.13;21.10;;;;;;;0.18;100.00;99599.34;5071802;28;20081;-76
2023/03/08 09:14:14;;;;;;;49.70;22.23;;;;;;;0.23;100.00;99608.63;5070049;28;20525;-77
2023/03/08 09:16:40;;;;;;;46.60;20.45;;;;;;;0.29;100.00;99609.66;5071940;28;20044;-76
2023/03/08 09:19:07;;;;;;;42.53;20.67;;;;;;;0.29;100.00;99604.44;5072077;28;20485;-77
2023/03/08 09:21:34;;;;;;;41.65;20.02;;;;;;;0.26;100.00;99590.25;5071012;28;20883;-76
2023/03/08 09:24:03;;;;;;;42.65;19.55;;;;;;;0.26;100.00;99598.13;5071843;28;20041;-77
2023/03/08 09:26:31;;;;;;;50.08;20.70;;;;;;;0.29;100.00;99596.59;5071256;28;20477;-76
2023/03/08 09:29:03;;;;;;;40.00;19.40;;;;;;;0.33;100.00;99590.16;5073418;28;20091;-76
2023/03/08 09:31:31;;;;;;;35.88;18.85;;;;;;;0.39;100.00;99572.13;5075055;28;20044;-76
2023/03/08 09:33:58;;;;;;;40.47;18.23;;;;;;;0.42;100.00;99571.31;5074360;28;20567;-76
2023/03/08 09:36:27;;;;;;;42.78;18.80;;;;;;;0.47;100.00;99557.75;5074545;28;20076;-77
2023/03/08 09:38:55;;;;;;;42.50;18.45;;;;;;;0.53;100.00;99547.56;5073595;28;20141;-76
2023/03/08 09:41:34;;;;;;;32.38;16.88;;;;;;;0.58;100.00;99545.22;5074814;28;20183;-77
2023/03/08 09:44:12;;;;;;;35.95;18.63;;;;;;;0.60;100.00;99540.34;5075164;28;20049;-76
2023/03/08 09:46:49;;;;;;;33.38;16.15;;;;;;;0.68;100.00;99527.13;5075096;28;20040;-76
2023/03/08 09:49:26;;;;;;;39.40;17.40;;;;;;;0.77;100.00;99529.97;5074691;28;20045;-76
2023/03/08 09:52:21;;;;;;;33.95;16.80;;;;;;;0.94;100.00;99534.88;5074083;28;20049;-76
2023/03/08 09:54:49;;;;;;;31.63;16.75;;;;;;;1.03;100.00;99542.19;5074857;28;20044;-76
2023/03/08 09:57:22;;;;;;;32.65;16.80;;;;;;;1.08;100.00;99535.75;5074757;28;20049;-77
2023/03/08 09:59:56;;;;;;;32.25;16.52;;;;;;;1.14;100.00;99526.28;5074718;28;20087;-77
2023/03/08 10:02:46;;;;;;;33.58;17.45;;;;;;;1.21;100.00;99524.25;5074625;28;20564;-77
2023/03/08 10:05:28;;;;;;;35.08;16.98;;;;;;;1.42;100.00;99528.34;5072422;28;20095;-77
2023/03/08 10:08:15;;;;;;;32.75;15.93;;;;;;;1.50;100.00;99532.28;5075143;28;20041;-80
2023/03/08 10:11:06;;;;;;;30.45;15.27;;;;;;;1.54;100.00;99545.34;5074729;28;20052;-77
2023/03/08 10:13:34;;;;;;;36.63;16.40;;;;;;;1.69;100.00;99533.38;5074412;28;20502;-76
2023/03/08 10:16:22;;;;;;;32.45;15.52;;;;;;;1.82;100.00;99530.88;5074375;28;20041;-75
2023/03/08 10:18:53;;;;;;;30.15;16.52;;;;;;;1.86;100.00;99531.53;5074699;28;20083;-74
2023/03/08 10:21:22;;;;;;;26.92;15.13;;;;;;;1.92;100.00;99527.28;5074063;28;20053;-75
2023/03/08 10:24:25;;;;;;;31.30;15.85;;;;;;;1.96;100.00;99522.69;5074619;28;20045;-76
2023/03/08 10:27:26;;;;;;;32.90;17.10;;;;;;;2.15;100.00;99519.22;5070544;28;20144;-75
2023/03/08 10:29:57;;;;;;;37.45;16.35;;;;;;;2.33;99.30;99530.06;5068719;28;20139;-74
2023/03/08 10:32:25;;;;;;;28.95;15.52;;;;;;;2.30;98.40;99530.13;5073903;28;20534;-76
2023/03/08 10:35:00;;;;;;;33.95;16.30;;;;;;;2.28;98.13;99527.94;5073421;28;20049;-75
2023/03/08 10:37:31;;;;;;;31.02;16.05;;;;;;;2.33;97.33;99527.44;5072633;28;20037;-75
2023/03/08 10:40:04;;;;;;;41.65;22.27;;;;;;;2.34;96.88;99509.78;5072039;28;20048;-75
2023/03/08 10:42:32;;;;;;;30.75;14.63;;;;;;;2.28;95.66;99495.66;5072403;28;20101;-76
2023/03/08 10:45:12;;;;;;;26.27;15.30;;;;;;;2.24;95.64;99492.38;5073230;28;20041;-75
2023/03/08 10:47:39;;;;;;;30.13;14.68;;;;;;;2.15;95.23;99487.72;5073867;28;20048;-75
2023/03/08 10:50:21;;;;;;;27.77;15.07;;;;;;;2.18;95.33;99481.66;5071857;28;20425;-75
2023/03/08 10:52:49;;;;;;;30.13;15.48;;;;;;;2.18;95.25;99471.16;5072522;28;20107;-75
2023/03/08 10:55:28;;;;;;;34.33;16.35;;;;;;;2.37;95.53;99471.44;5072638;28;20048;-75
2023/03/08 10:57:57;;;;;;;27.13;14.93;;;;;;;2.69;94.94;99474.00;5074182;28;20051;-75
2023/03/08 11:00:28;;;;;;;31.77;15.23;;;;;;;2.81;93.82;99480.41;5073527;28;20557;-75
2023/03/08 11:03:15;;;;;;;28.35;14.43;;;;;;;2.88;93.63;99490.75;5073557;28;20048;-76
2023/03/08 11:05:59;;;;;;;25.05;13.13;;;;;;;2.91;92.25;99490.66;5073894;28;20115;-77
2023/03/08 11:08:35;;;;;;;24.75;13.00;;;;;;;2.97;90.65;99490.88;5073893;28;20168;-77
2023/03/08 11:11:11;;;;;;;23.20;11.82;;;;;;;2.98;90.45;99487.84;5073251;28;20099;-76
2023/03/08 11:13:45;;;;;;;23.10;11.88;;;;;;;2.97;89.49;99496.88;5073188;28;20079;-74
2023/03/08 11:16:23;;;;;;;20.98;10.35;;;;;;;2.97;88.60;99496.88;5074219;28;20060;-73
2023/03/08 11:19:11;;;;;;;24.48;12.35;;;;;;;2.93;88.08;99503.38;5073729;28;20505;-72
2023/03/08 11:21:53;;;;;;;22.65;11.90;;;;;;;2.85;88.27;99499.47;5075416;28;20053;-76
2023/03/08 11:24:50;;;;;;;20.33;11.20;;;;;;;2.85;88.55;99507.34;5073844;28;20547;-76
2023/03/08 11:27:45;;;;;;;22.33;10.85;;;;;;;2.83;87.97;99510.38;5073597;28;20579;-77
2023/03/08 11:30:23;;;;;;;21.55;11.05;;;;;;;2.85;88.25;99507.34;5073367;28;20175;-77